Time;durP1;ratioP1;P1;durP2;ratioP2;P2;SDS_P1;SDS_P2;PMS_P1;PMS_P2;Temp;Humidity;BMP_temperature;BMP_pressure;BME280_temperature;BME280_humidity;BME280_pressure;Samples;Min_cycle;Max_cycle;Signal;HPM_P1;HPM_P2
2022/03/21 00:03:20;;;;;;;;;;;6.90;33.20;;;5.14;36.56;103371.41;8307027;28;20007;-90
2022/03/21 00:07:41;;;;;;;;;;;7.00;33.20;;;5.18;36.63;103402.50;8303614;28;20004;-90
2022/03/21 00:12:04;;;;;;;;;;;6.80;33.10;;;5.02;36.11;103390.25;8320584;28;20019;-89
2022/03/21 00:16:25;;;;;;;;;;;6.80;33.20;;;4.91;36.48;103384.06;8305035;28;20000;-91
2022/03/21 00:20:49;;;;;;;;;;;6.70;33.10;;;4.81;36.30;103381.41;8307240;28;19976;-91
2022/03/21 00:25:10;;;;;;;;;;;6.60;33.20;;;4.71;36.39;103382.13;8297232;28;20003;-90
2022/03/21 00:29:32;;;;;;;;;;;6.40;33.20;;;4.66;36.58;103384.66;8314993;28;20000;-90
2022/03/21 00:33:54;;;;;;;;;;;6.70;33.40;;;4.49;36.50;103362.03;8301423;28;20377;-90
2022/03/21 00:38:16;;;;;;;;;;;6.30;33.30;;;4.44;36.60;103360.22;8326258;28;20012;-89
2022/03/21 00:42:40;;;;;;;;;;;6.30;33.40;;;4.41;36.59;103357.59;8296581;28;20016;-90
2022/03/21 00:47:01;;;;;;;;;;;6.20;33.40;;;4.39;36.66;103384.31;8319597;28;20004;-90
2022/03/21 00:51:23;;;;;;;;;;;6.20;33.40;;;4.26;36.56;103378.09;8302348;28;19992;-90
2022/03/21 00:55:46;;;;;;;;;;;6.10;33.40;;;4.17;36.70;103373.66;8299751;28;20019;-90
2022/03/21 01:00:12;;;;;;;;;;;6.00;33.40;;;4.17;36.59;103377.97;8313274;28;20011;-90
2022/03/21 01:15:54;;;;;;;;;;;5.90;33.50;;;4.08;36.83;103389.06;8333716;28;20012;-90
2022/03/21 01:20:17;;;;;;;;;;;5.90;33.60;;;3.96;36.90;103363.88;8298372;28;20012;-90
2022/03/21 01:24:39;;;;;;;;;;;5.90;33.60;;;4.01;36.98;103378.59;8292283;28;20019;-90
2022/03/21 01:29:01;;;;;;;;;;;5.70;33.60;;;3.89;36.78;103372.41;8300547;28;20009;-89
2022/03/21 01:33:24;;;;;;;;;;;5.80;33.60;;;3.74;36.70;103367.84;8316534;28;20023;-90
2022/03/21 01:37:46;;;;;;;;;;;5.70;33.60;;;3.66;37.00;103374.59;8294598;28;20003;-90
2022/03/21 01:42:07;;;;;;;;;;;5.60;33.50;;;3.74;37.01;103385.06;8316227;28;20012;-90
2022/03/21 01:46:29;;;;;;;;;;;5.60;33.60;;;3.58;36.97;103362.41;8309304;28;20003;-90
2022/03/21 01:50:51;;;;;;;;;;;5.40;33.60;;;3.62;36.98;103377.09;8303914;28;19996;-89
2022/03/21 01:59:55;;;;;;;;;;;5.50;33.70;;;3.68;36.68;103388.41;8322575;28;20007;-89
2022/03/21 02:04:16;;;;;;;;;;;5.10;33.60;;;3.59;37.04;103371.88;8328097;28;20020;-89
2022/03/21 02:08:38;;;;;;;;;;;5.30;33.70;;;3.49;37.04;103363.13;8316781;28;20004;-90
2022/03/21 02:13:00;;;;;;;;;;;5.20;33.70;;;3.53;37.31;103376.09;8285550;28;19927;-89
2022/03/21 02:17:24;;;;;;;;;;;5.00;33.60;;;3.41;37.26;103365.56;8302500;28;20000;-89
2022/03/21 02:21:54;;;;;;;;;;;5.30;33.70;;;3.41;37.37;103378.50;8306420;28;20008;-89
2022/03/21 02:26:16;;;;;;;;;;;5.30;33.80;;;3.34;37.32;103376.63;8316588;28;20000;-89
2022/03/21 02:30:57;;;;;;;;;;;5.20;33.80;;;3.13;37.33;103345.25;8289202;28;20004;-88
2022/03/21 02:35:20;;;;;;;;;;;5.10;33.80;;;3.05;37.27;103353.75;8307610;28;19930;-89
2022/03/21 02:39:42;;;;;;;;;;;5.10;33.90;;;3.00;37.39;103355.38;8325123;28;20019;-89
2022/03/21 02:44:04;;;;;;;;;;;4.90;33.80;;;3.01;37.65;103354.53;8315390;28;20015;-89
2022/03/21 02:48:26;;;;;;;;;;;4.90;33.90;;;3.09;37.03;103365.88;8285915;28;20011;-89
2022/03/21 02:52:49;;;;;;;;;;;4.80;34.00;;;3.01;37.00;103357.09;8319139;28;20029;-89
2022/03/21 02:57:10;;;;;;;;;;;4.90;34.10;;;3.11;37.47;103368.50;8298247;28;20019;-89
2022/03/21 03:01:32;;;;;;;;;;;5.20;34.20;;;3.20;37.19;103383.28;8301335;28;20007;-89
2022/03/21 03:05:54;;;;;;;;;;;5.00;34.10;;;3.15;37.37;103364.25;8298945;28;20012;-89
2022/03/21 03:10:16;;;;;;;;;;;5.00;34.10;;;3.09;37.45;103339.19;8293627;28;20005;-88
2022/03/21 03:14:37;;;;;;;;;;;5.10;34.20;;;3.21;37.45;103364.34;8295719;28;20455;-89
2022/03/21 03:18:59;;;;;;;;;;;5.10;34.10;;;3.10;37.42;103344.34;8318868;28;20016;-88
2022/03/21 03:23:23;;;;;;;;;;;5.10;34.10;;;3.24;37.35;103361.81;8306325;28;20008;-88
2022/03/21 03:27:44;;;;;;;;;;;5.10;34.10;;;3.23;37.33;103360.94;8330556;28;20008;-88
2022/03/21 03:32:06;;;;;;;;;;;5.10;34.10;;;3.29;37.43;103371.41;8305978;28;20016;-88
2022/03/21 03:36:27;;;;;;;;;;;5.20;34.10;;;3.10;37.29;103357.25;8299791;28;19996;-88
2022/03/21 03:40:49;;;;;;;;;;;5.10;34.00;;;3.08;37.67;103360.69;8320512;28;20000;-88
2022/03/21 03:45:11;;;;;;;;;;;5.10;34.00;;;3.00;37.62;103363.13;8318780;28;20008;-88
2022/03/21 03:49:32;;;;;;;;;;;5.00;33.90;;;3.03;37.56;103375.22;8319176;28;20004;-87
2022/03/21 03:53:54;;;;;;;;;;;5.00;34.00;;;2.85;37.59;103350.78;8301679;28;19928;-87
2022/03/21 03:58:15;;;;;;;;;;;4.90;34.00;;;2.98;37.67;103372.53;8316175;28;20465;-87
2022/03/21 04:07:19;;;;;;;;;;;4.80;34.00;;;2.82;37.42;103367.91;8316827;28;19977;-86
2022/03/21 04:11:40;;;;;;;;;;;4.80;34.00;;;2.62;37.71;103342.59;8338699;28;20030;-86
2022/03/21 04:16:02;;;;;;;;;;;4.70;34.00;;;2.65;37.79;103362.44;8298183;28;20015;-86
2022/03/21 04:20:24;;;;;;;;;;;4.60;34.00;;;2.54;37.72;103358.72;8305371;28;20008;-86
2022/03/21 04:24:45;;;;;;;;;;;4.50;34.00;;;2.43;37.73;103366.25;8296891;28;20011;-87
2022/03/21 04:29:07;;;;;;;;;;;4.40;34.00;;;2.38;37.52;103360.16;8327774;28;20007;-86
2022/03/21 04:33:29;;;;;;;;;;;4.40;34.10;;;2.29;37.62;103367.66;8318592;28;19921;-85
2022/03/21 04:37:50;;;;;;;;;;;4.30;34.10;;;2.33;37.58;103377.22;8309021;28;20022;-85
2022/03/21 04:42:12;;;;;;;;;;;4.30;34.10;;;2.33;37.80;103385.81;8301008;28;19996;-85
2022/03/21 04:46:33;;;;;;;;;;;4.00;34.00;;;2.23;38.03;103373.56;8311241;28;20019;-85
2022/03/21 04:50:55;;;;;;;;;;;4.30;34.20;;;2.24;37.77;103385.59;8311369;28;19917;-84
2022/03/21 04:55:16;;;;;;;;;;;4.20;34.20;;;2.08;37.88;103389.56;8303638;28;19921;-84
2022/03/21 04:59:38;;;;;;;;;;;4.10;34.30;;;1.82;37.95;103360.59;8316456;28;20004;-82
2022/03/21 05:04:00;;;;;;;;;;;4.00;34.40;;;1.78;37.68;103374.22;8316696;28;20012;-82
2022/03/21 05:08:21;;;;;;;;;;;3.90;34.30;;;1.76;37.98;103375.91;8322691;28;20457;-82
2022/03/21 05:12:43;;;;;;;;;;;3.80;34.30;;;1.79;38.04;103388.00;8308067;28;19929;-82
2022/03/21 05:17:05;;;;;;;;;;;3.70;34.40;;;1.72;37.78;103381.81;8321302;28;20004;-82
2022/03/21 05:21:27;;;;;;;;;;;3.60;34.30;;;1.64;37.88;103366.16;8311216;28;20000;-82
2022/03/21 05:44:32;;;;;;;;;;;3.70;34.60;;;1.75;38.05;103392.19;8276200;28;19948;-83
2022/03/21 05:48:58;;;;;;;;;;;3.70;34.60;;;1.89;37.98;103423.44;8310375;28;19917;-82
2022/03/21 05:53:20;;;;;;;;;;;3.80;34.60;;;1.92;37.96;103408.06;8315368;28;20346;-82
2022/03/21 05:57:41;;;;;;;;;;;3.80;34.60;;;1.90;38.22;103407.16;8315158;28;20330;-82
2022/03/21 06:02:03;;;;;;;;;;;3.90;34.70;;;1.75;38.20;103389.59;8328491;28;20005;-83
2022/03/21 06:06:24;;;;;;;;;;;3.90;34.70;;;1.86;38.36;103406.19;8310165;28;20453;-83
2022/03/21 06:10:47;;;;;;;;;;;3.90;34.70;;;1.97;38.27;103424.50;8325968;28;20616;-84
2022/03/21 06:15:09;;;;;;;;;;;4.00;34.80;;;1.97;38.32;103420.22;8308659;28;19936;-83
2022/03/21 06:19:30;;;;;;;;;;;4.00;34.90;;;1.93;38.47;103402.06;8312082;28;20345;-85
2022/03/21 06:23:52;;;;;;;;;;;4.10;34.90;;;2.14;38.56;103438.66;8333558;28;20385;-88
2022/03/21 06:28:13;;;;;;;;;;;4.10;34.90;;;2.13;38.36;103429.22;8311382;28;20016;-83
2022/03/21 06:32:36;;;;;;;;;;;4.10;35.10;;;2.26;38.14;103440.66;8304994;28;20699;-86
2022/03/21 06:36:58;;;;;;;;;;;4.10;35.00;;;2.31;38.52;103438.19;8320334;28;20437;-85
2022/03/21 06:41:20;;;;;;;;;;;4.30;35.50;;;2.39;38.21;103428.91;8312345;28;20007;-84
2022/03/21 06:45:43;;;;;;;;;;;4.70;35.40;;;2.39;38.51;103395.41;8306667;28;20008;-81
2022/03/21 06:50:05;;;;;;;;;;;4.50;35.50;;;2.59;38.68;103399.28;8322585;28;20004;-87
2022/03/21 06:54:27;;;;;;;;;;;4.70;35.40;;;2.79;38.37;103398.81;8325054;28;20015;-87
2022/03/21 06:58:48;;;;;;;;;;;4.80;35.30;;;3.02;39.07;103410.47;8331991;28;20011;-86
2022/03/21 07:03:11;;;;;;;;;;;5.10;35.30;;;3.21;38.65;103400.50;8327080;28;20012;-87
2022/03/21 07:07:32;;;;;;;;;;;5.30;35.50;;;3.52;38.83;103426.03;8315936;28;20016;-83
2022/03/21 07:11:54;;;;;;;;;;;5.30;35.30;;;3.79;38.65;103434.25;8319420;28;20016;-85
2022/03/21 07:16:16;;;;;;;;;;;5.70;35.30;;;3.90;38.93;103435.28;8297862;28;19925;-86
2022/03/21 07:20:37;;;;;;;;;;;5.50;35.00;;;4.07;38.72;103427.81;8319621;28;20070;-85
2022/03/21 07:24:59;;;;;;;;;;;6.10;35.10;;;4.18;38.69;103427.09;8321143;28;20008;-87
2022/03/21 07:29:22;;;;;;;;;;;6.20;35.10;;;4.39;38.74;103436.03;8302940;28;20004;-86
2022/03/21 07:33:43;;;;;;;;;;;6.40;35.00;;;4.30;38.58;103392.81;8313913;28;20445;-90
2022/03/21 07:38:07;;;;;;;;;;;6.50;35.00;;;4.74;38.94;103433.94;8302531;28;20460;-87
2022/03/21 07:42:29;;;;;;;;;;;6.70;35.00;;;4.81;38.76;103409.00;8326046;28;20007;-82
2022/03/21 07:51:30;;;;;;;;;;;6.80;34.80;;;5.08;38.74;103391.19;8307181;28;20312;-90
2022/03/21 07:55:52;;;;;;;;;;;7.20;34.80;;;5.44;38.77;103418.31;8306094;28;20350;-86
2022/03/21 08:00:15;;;;;;;;;;;7.40;34.70;;;5.67;38.49;103420.25;8308001;28;20083;-88
2022/03/21 08:04:37;;;;;;;;;;;7.70;34.60;;;5.87;38.52;103412.66;8316507;28;20020;-85
2022/03/21 08:08:59;;;;;;;;;;;7.80;34.70;;;6.25;38.62;103410.34;8301711;28;20280;-86
2022/03/21 08:13:20;;;;;;;;;;;8.10;34.80;;;6.57;38.39;103422.66;8316606;28;19996;-85
2022/03/21 08:17:56;;;;;;;;;;;8.40;34.70;;;6.89;38.54;103415.00;8323383;28;20664;-84
2022/03/21 08:22:19;;;;;;;;;;;8.80;34.40;;;7.19;38.70;103397.78;8329583;28;20361;-85
2022/03/21 08:26:43;;;;;;;;;;;9.10;33.90;;;7.43;38.36;103377.00;8317511;28;19923;-84
2022/03/21 08:31:04;;;;;;;;;;;9.40;33.20;;;8.01;38.09;103417.72;8329618;28;20456;-84
2022/03/21 08:35:26;;;;;;;;;;;9.80;32.20;;;8.27;37.99;103385.59;8314709;28;19947;-85
2022/03/21 08:39:47;;;;;;;;;;;10.10;32.80;;;8.63;38.29;103402.88;8331396;28;20011;-93
2022/03/21 08:44:09;;;;;;;;;;;10.40;33.50;;;8.82;38.00;103394.09;8324285;28;20019;-84
2022/03/21 08:53:10;;;;;;;;;;;10.80;31.00;;;9.35;37.64;103385.97;8311739;28;19996;-84
2022/03/21 08:57:32;;;;;;;;;;;11.30;30.50;;;9.61;37.73;103389.22;8310403;28;20012;-84
2022/03/21 09:01:54;;;;;;;;;;;11.50;32.20;;;9.67;37.70;103365.72;8326739;28;20158;-85
2022/03/21 09:06:17;;;;;;;;;;;12.00;32.20;;;9.91;37.33;103362.00;8307574;28;20389;-84
2022/03/21 09:10:38;;;;;;;;;;;11.70;28.90;;;10.17;36.83;103372.16;8296581;28;20017;-84
2022/03/21 09:15:00;;;;;;;;;;;12.10;30.10;;;10.30;36.56;103354.66;8287596;28;19928;-78
2022/03/21 09:19:23;;;;;;;;;;;12.20;29.20;;;10.47;36.67;103364.88;8306894;28;19917;-78
2022/03/21 09:23:45;;;;;;;;;;;12.40;29.70;;;10.65;37.11;103371.66;8324227;28;20024;-78
2022/03/21 09:28:08;;;;;;;;;;;12.40;30.60;;;10.80;36.76;103366.22;8320499;28;20035;-83
2022/03/21 09:32:31;;;;;;;;;;;12.70;30.70;;;10.71;36.36;103323.66;8312977;28;21778;-83
2022/03/21 09:36:52;;;;;;;;;;;12.80;29.40;;;11.05;35.94;103366.75;8317554;28;19925;-84
2022/03/21 09:41:17;;;;;;;;;;;13.00;29.60;;;11.20;35.92;103367.38;8326338;28;20021;-83
2022/03/21 09:45:39;;;;;;;;;;;13.10;28.10;;;11.37;36.00;103375.84;8306158;28;19925;-84
2022/03/21 09:50:00;;;;;;;;;;;13.20;28.90;;;11.46;35.79;103346.91;8327047;28;20007;-82
2022/03/21 09:54:22;;;;;;;;;;;13.30;28.70;;;11.62;35.83;103344.03;8323495;28;19925;-82
2022/03/21 09:58:44;;;;;;;;;;;13.40;28.70;;;11.72;35.85;103332.53;8320508;28;20446;-82
2022/03/21 10:03:05;;;;;;;;;;;13.60;29.20;;;11.88;35.51;103335.72;8317550;28;20388;-82
2022/03/21 10:07:27;;;;;;;;;;;13.70;29.40;;;11.88;35.26;103307.81;8317034;28;20000;-83
2022/03/21 10:11:57;;;;;;;;;;;13.90;27.90;;;11.97;35.66;103298.06;8314760;28;20004;-82
2022/03/21 10:16:19;;;;;;;;;;;14.00;28.20;;;12.13;35.27;103307.31;8326251;28;19943;-84
2022/03/21 10:20:40;;;;;;;;;;;14.10;28.40;;;12.23;35.54;103303.59;8307083;28;20004;-83
2022/03/21 10:25:07;;;;;;;;;;;14.20;29.40;;;12.55;35.41;103334.38;8295611;28;20000;-84
2022/03/21 10:29:28;;;;;;;;;;;14.30;28.90;;;12.66;35.45;103320.19;8311812;28;19917;-84
2022/03/21 10:33:59;;;;;;;;;;;14.40;29.30;;;12.88;35.08;103329.31;8324728;28;20016;-84
2022/03/21 10:38:35;;;;;;;;;;;14.60;28.20;;;12.91;34.85;103316.13;8333780;28;19940;-84
2022/03/21 10:42:59;;;;;;;;;;;14.80;29.60;;;13.11;34.89;103323.50;8323311;28;19917;-83
2022/03/21 10:47:21;;;;;;;;;;;14.80;29.40;;;13.25;34.78;103329.25;8320672;28;19923;-84
2022/03/21 10:51:50;;;;;;;;;;;14.90;28.50;;;13.37;35.06;103319.41;8320147;28;20003;-84
2022/03/21 10:56:12;;;;;;;;;;;15.10;29.10;;;13.46;34.75;103304.28;8316818;28;20409;-90
2022/03/21 11:00:34;;;;;;;;;;;15.20;29.10;;;13.52;34.30;103292.75;8313116;28;20008;-87
2022/03/21 11:04:56;;;;;;;;;;;15.50;27.50;;;13.66;34.41;103295.91;8312729;28;20000;-90
2022/03/21 11:09:17;;;;;;;;;;;15.40;27.00;;;13.69;33.75;103273.91;8303500;28;19984;-93
2022/03/21 11:13:39;;;;;;;;;;;15.50;28.00;;;13.90;33.66;103282.97;8298621;28;20015;-85
2022/03/21 11:18:01;;;;;;;;;;;15.50;27.10;;;13.89;33.83;103260.25;8315202;28;20293;-86
2022/03/21 11:22:22;;;;;;;;;;;15.70;26.70;;;14.06;33.71;103262.38;8316307;28;20437;-84
2022/03/21 11:27:22;;;;;;;;;;;15.80;27.30;;;14.28;33.84;103273.13;8305190;28;19993;-83
2022/03/21 11:32:09;;;;;;;;;;;16.00;26.10;;;14.33;33.34;103260.69;8313725;28;20707;-84
2022/03/21 11:36:31;;;;;;;;;;;16.10;25.80;;;14.42;33.50;103260.44;8297738;28;20435;-84
2022/03/21 11:41:14;;;;;;;;;;;16.10;28.70;;;14.68;33.62;103277.19;8326262;28;19970;-85
2022/03/21 11:45:37;;;;;;;;;;;16.30;29.30;;;14.73;33.49;103265.63;8325734;28;20012;-85
2022/03/21 11:49:58;;;;;;;;;;;16.40;27.60;;;14.81;33.05;103266.22;8328777;28;19921;-85
2022/03/21 11:54:27;;;;;;;;;;;16.50;28.10;;;14.87;33.44;103251.16;8330367;28;19952;-85
2022/03/21 11:58:49;;;;;;;;;;;16.60;27.60;;;14.35;33.11;103167.75;8317517;28;20367;-85
2022/03/21 12:03:25;;;;;;;;;;;16.60;28.20;;;14.97;33.35;103245.53;8314632;28;20293;-84
2022/03/21 12:07:47;;;;;;;;;;;16.70;28.50;;;14.88;33.02;103203.75;8318036;28;20286;-85
2022/03/21 12:12:10;;;;;;;;;;;16.70;26.80;;;15.06;32.84;103223.31;8320824;28;19939;-85
2022/03/21 12:16:31;;;;;;;;;;;16.80;29.50;;;15.09;33.02;103203.94;8315741;28;19927;-85
2022/03/21 12:20:53;;;;;;;;;;;16.80;28.60;;;15.14;32.87;103196.72;8320648;28;20016;-84
2022/03/21 12:25:47;;;;;;;;;;;16.90;28.60;;;15.15;33.06;103190.53;8329096;28;20015;-85
2022/03/21 12:30:34;;;;;;;;;;;17.00;28.30;;;15.35;32.97;103217.03;8338073;28;20392;-85
2022/03/21 12:34:55;;;;;;;;;;;17.00;29.20;;;15.31;33.08;103193.50;8322946;28;19925;-84
2022/03/21 12:39:18;;;;;;;;;;;17.00;29.40;;;15.38;32.99;103190.59;8325570;28;20020;-85
2022/03/21 12:43:40;;;;;;;;;;;17.10;28.60;;;15.53;32.96;103199.75;8323695;28;20354;-85
2022/03/21 12:48:05;;;;;;;;;;;17.20;29.40;;;15.59;33.10;103188.13;8318065;28;20429;-85
2022/03/21 12:52:28;;;;;;;;;;;17.20;29.20;;;15.64;32.67;103196.72;8329094;28;20442;-84
2022/03/21 12:56:50;;;;;;;;;;;17.30;28.50;;;15.69;32.70;103194.81;8323715;28;19921;-86
2022/03/21 13:01:19;;;;;;;;;;;17.30;27.60;;;15.61;32.56;103186.28;8329716;28;20008;-84
2022/03/21 13:10:34;;;;;;;;;;;17.30;26.00;;;15.69;32.37;103192.16;8312918;28;20453;-84
2022/03/21 13:15:07;;;;;;;;;;;17.30;26.60;;;15.68;32.14;103185.13;8330801;28;19924;-84
2022/03/21 13:19:32;;;;;;;;;;;17.30;27.60;;;15.64;32.34;103171.22;8327711;28;20011;-84
2022/03/21 13:23:54;;;;;;;;;;;17.40;26.40;;;15.72;31.99;103184.16;8317917;28;20439;-85
2022/03/21 13:28:24;;;;;;;;;;;17.30;26.20;;;15.70;31.94;103170.16;8326196;28;20020;-84
2022/03/21 13:32:46;;;;;;;;;;;17.40;26.20;;;15.80;32.13;103184.72;8307965;28;20448;-85
2022/03/21 13:37:16;;;;;;;;;;;17.30;28.50;;;15.79;31.88;103172.44;8324960;28;19928;-84
2022/03/21 13:42:21;;;;;;;;;;;17.40;28.90;;;15.88;32.12;103180.00;8299084;28;20004;-85
2022/03/21 13:46:59;;;;;;;;;;;17.40;26.30;;;15.87;32.14;103165.09;8259579;28;20004;-89
2022/03/21 13:51:23;;;;;;;;;;;17.50;28.80;;;15.90;32.14;103158.84;8290888;28;20027;-85
2022/03/21 13:55:48;;;;;;;;;;;17.50;27.40;;;16.01;32.06;103167.19;8294545;28;19928;-85
2022/03/21 14:00:10;;;;;;;;;;;17.60;28.20;;;16.00;32.19;103143.56;8319822;28;20007;-86
2022/03/21 14:04:37;;;;;;;;;;;17.60;28.20;;;16.05;31.98;103158.25;8306106;28;19921;-85
2022/03/21 14:09:02;;;;;;;;;;;17.70;28.40;;;16.11;31.97;103154.53;8292240;28;20356;-88
2022/03/21 14:13:25;;;;;;;;;;;17.70;28.80;;;16.08;31.95;103158.13;8294854;28;19936;-85
2022/03/21 14:17:50;;;;;;;;;;;17.70;29.10;;;16.10;31.79;103151.03;8306453;28;19928;-85
2022/03/21 14:22:11;;;;;;;;;;;17.60;29.10;;;16.18;32.01;103163.06;8308693;28;20012;-85
2022/03/21 14:26:38;;;;;;;;;;;17.70;29.10;;;16.09;31.74;103148.44;8326634;28;20015;-85
2022/03/21 14:31:01;;;;;;;;;;;17.70;28.30;;;16.19;31.79;103154.22;8310588;28;20395;-85
2022/03/21 14:35:23;;;;;;;;;;;17.70;28.50;;;16.19;31.91;103159.50;8330505;28;19929;-85
2022/03/21 14:39:44;;;;;;;;;;;17.80;26.70;;;16.05;32.01;103124.00;8297449;28;20000;-85
2022/03/21 14:44:06;;;;;;;;;;;17.70;26.70;;;16.09;32.04;103135.28;8273984;28;19925;-84
2022/03/21 14:48:28;;;;;;;;;;;17.70;28.30;;;16.18;31.52;103134.91;8307153;28;19917;-85
2022/03/21 14:52:49;;;;;;;;;;;17.80;27.50;;;15.89;31.57;103091.28;8286905;28;20301;-84
2022/03/21 14:57:11;;;;;;;;;;;17.70;28.20;;;16.00;31.49;103109.28;8291532;28;19929;-84
2022/03/21 15:01:33;;;;;;;;;;;17.70;27.40;;;16.05;31.36;103118.72;8260288;28;19928;-84
2022/03/21 15:05:54;;;;;;;;;;;17.70;28.00;;;16.14;31.38;103130.69;8328305;28;19925;-85
2022/03/21 15:10:23;;;;;;;;;;;17.70;27.80;;;15.76;31.43;103056.63;8264006;28;20295;-84
2022/03/21 15:14:44;;;;;;;;;;;17.70;28.20;;;15.91;31.62;103085.03;8290887;28;19925;-84
2022/03/21 15:19:07;;;;;;;;;;;17.70;26.60;;;16.00;31.45;103090.84;8293853;28;19956;-84
2022/03/21 15:23:35;;;;;;;;;;;17.70;28.30;;;16.11;31.40;103109.72;8309081;28;20738;-84
2022/03/21 15:27:56;;;;;;;;;;;17.60;28.60;;;16.10;31.43;103102.75;8303840;28;19936;-84
2022/03/21 15:32:18;;;;;;;;;;;17.60;28.20;;;16.07;31.60;103094.97;8326054;28;19961;-84
2022/03/21 15:41:40;;;;;;;;;;;17.60;27.70;;;16.02;31.55;103096.91;8292859;28;19925;-84
2022/03/21 15:46:05;;;;;;;;;;;17.60;27.90;;;16.00;31.40;103090.84;8279005;28;19921;-84
2022/03/21 15:50:29;;;;;;;;;;;17.60;29.10;;;15.90;31.14;103085.94;8297751;28;19921;-84
2022/03/21 15:54:54;;;;;;;;;;;17.60;27.70;;;15.93;31.36;103088.47;8294967;28;19926;-84
2022/03/21 15:59:16;;;;;;;;;;;17.50;26.30;;;15.89;31.25;103084.22;8296860;28;19928;-84
2022/03/21 16:03:39;;;;;;;;;;;17.50;28.40;;;15.98;31.08;103095.31;8285621;28;19921;-84
2022/03/21 16:08:01;;;;;;;;;;;17.50;27.60;;;15.81;31.37;103070.50;8285593;28;19921;-84
2022/03/21 16:12:23;;;;;;;;;;;17.50;28.60;;;15.89;31.38;103081.59;8294796;28;19928;-85
2022/03/21 16:16:45;;;;;;;;;;;17.50;28.70;;;15.97;31.34;103099.72;8277294;28;19931;-85
2022/03/21 16:21:07;;;;;;;;;;;17.50;27.80;;;15.47;31.39;103027.03;8304960;28;19935;-86
2022/03/21 16:25:29;;;;;;;;;;;17.60;28.30;;;15.73;30.99;103075.19;8318206;28;19921;-85
2022/03/21 16:29:51;;;;;;;;;;;17.40;28.40;;;15.77;31.10;103097.88;8296469;28;19927;-86
2022/03/21 16:34:15;;;;;;;;;;;17.60;28.90;;;15.70;31.33;103089.34;8282728;28;19924;-87
2022/03/21 16:38:37;;;;;;;;;;;17.30;28.90;;;15.61;30.99;103081.78;8304481;28;19928;-86
2022/03/21 16:42:59;;;;;;;;;;;17.20;29.10;;;15.68;31.55;103103.47;8309445;28;19924;-86
2022/03/21 16:47:23;;;;;;;;;;;17.20;28.80;;;15.67;31.14;103112.31;8316472;28;19929;-86
2022/03/21 16:51:45;;;;;;;;;;;17.20;27.70;;;15.58;31.34;103110.88;8308481;28;19921;-86
2022/03/21 16:56:11;;;;;;;;;;;17.10;28.90;;;15.33;31.36;103079.31;8300447;28;20393;-85
2022/03/21 17:00:33;;;;;;;;;;;17.00;29.20;;;15.42;31.10;103102.69;8298689;28;19920;-85
2022/03/21 17:04:54;;;;;;;;;;;16.90;29.30;;;15.35;31.30;103111.72;8316615;28;19934;-85
2022/03/21 17:09:16;;;;;;;;;;;16.60;29.30;;;14.97;31.42;103063.97;8316754;28;20012;-85
2022/03/21 17:13:39;;;;;;;;;;;16.70;29.40;;;15.12;31.00;103116.97;8294167;28;20258;-86
2022/03/21 17:27:21;;;;;;;;;;;16.30;29.50;;;14.46;31.08;103087.66;8310716;28;20491;-83
2022/03/21 17:31:42;;;;;;;;;;;16.10;29.50;;;14.44;31.39;103110.53;8302359;28;19927;-89
2022/03/21 17:36:05;;;;;;;;;;;15.60;29.40;;;14.25;31.16;103111.13;8291286;28;20360;-86
2022/03/21 17:40:28;;;;;;;;;;;15.80;29.60;;;14.13;31.41;103108.91;8318874;28;20408;-85
2022/03/21 17:44:49;;;;;;;;;;;15.70;29.60;;;13.86;31.39;103085.22;8311794;28;19921;-84
2022/03/21 17:49:11;;;;;;;;;;;15.50;29.60;;;13.88;31.21;103112.28;8268362;28;20310;-84
2022/03/21 17:53:34;;;;;;;;;;;15.30;29.60;;;13.79;31.57;103124.84;8272087;28;20417;-85
2022/03/21 17:57:38;;;;;;;;;;;15.20;29.70;;;13.58;31.36;103111.44;8289578;28;19925;-85
2022/03/21 18:01:40;;;;;;;;;;;15.10;29.70;;;13.57;31.27;103132.50;8289598;28;19928;-84
2022/03/21 18:05:58;;;;;;;;;;;14.80;29.70;;;13.24;31.38;103098.41;8489649;27;20341;-85
2022/03/21 18:10:14;;;;;;;;;;;14.80;29.80;;;12.99;31.33;103082.50;8504297;27;19915;-84
2022/03/21 18:14:30;;;;;;;;;;;15.10;29.90;;;13.20;31.38;103144.84;8467868;27;19941;-85
2022/03/21 18:18:42;;;;;;;;;;;14.60;29.80;;;12.36;31.42;103024.69;8392264;28;19924;-84
2022/03/21 18:22:57;;;;;;;;;;;14.70;30.00;;;12.80;31.56;103117.06;8356077;28;19920;-84
2022/03/21 18:27:02;;;;;;;;;;;14.30;30.00;;;12.13;31.50;103014.81;8365233;28;20316;-85
2022/03/21 18:31:08;;;;;;;;;;;14.30;30.00;;;12.39;31.70;103084.91;8347234;28;20743;-86
2022/03/21 18:35:11;;;;;;;;;;;14.10;29.90;;;12.07;31.64;103066.47;8373437;28;19931;-85
2022/03/21 18:39:14;;;;;;;;;;;14.00;30.00;;;12.45;31.77;103156.41;8354641;28;19920;-85
2022/03/21 18:43:16;;;;;;;;;;;13.90;30.00;;;12.08;31.70;103125.84;8374845;28;19921;-86
2022/03/21 18:47:18;;;;;;;;;;;13.50;29.90;;;11.93;31.82;103134.88;8374246;28;19920;-84
2022/03/21 18:51:22;;;;;;;;;;;13.60;29.90;;;11.84;31.46;103138.53;8342495;28;19920;-85
2022/03/21 18:55:24;;;;;;;;;;;13.40;29.90;;;11.48;31.48;103091.31;8359853;28;20080;-84
2022/03/21 18:59:33;;;;;;;;;;;13.30;30.00;;;11.57;31.73;103118.19;8363100;28;19920;-85
2022/03/21 19:03:39;;;;;;;;;;;13.20;30.00;;;11.51;31.79;103133.13;8341761;28;19921;-86
2022/03/21 19:07:41;;;;;;;;;;;13.10;30.00;;;11.51;32.05;103156.69;8363699;28;20385;-85
2022/03/21 19:11:45;;;;;;;;;;;13.00;30.00;;;11.42;31.55;103172.56;8367110;28;19925;-86
2022/03/21 19:15:51;;;;;;;;;;;12.90;30.00;;;11.04;31.47;103137.53;8381233;28;19938;-86
2022/03/21 19:19:55;;;;;;;;;;;12.90;30.00;;;10.91;31.28;103140.38;8378331;27;20380;-86
2022/03/21 19:23:57;;;;;;;;;;;12.50;30.10;;;10.49;31.88;103086.22;8317911;28;19925;-87
2022/03/21 19:27:58;;;;;;;;;;;12.50;30.30;;;10.67;31.23;103145.16;8310860;28;19921;-87
2022/03/21 19:32:00;;;;;;;;;;;12.30;30.20;;;10.46;31.96;103138.50;8302159;28;19944;-85
2022/03/21 19:36:02;;;;;;;;;;;12.20;30.20;;;10.37;32.14;103142.13;8310359;28;20382;-85
2022/03/21 19:40:07;;;;;;;;;;;12.00;30.10;;;10.04;31.92;103116.47;8285351;28;20523;-91
2022/03/21 19:44:09;;;;;;;;;;;11.60;30.00;;;9.72;32.29;103089.06;8300443;28;19925;-86
2022/03/21 19:48:13;;;;;;;;;;;11.70;30.20;;;9.97;32.18;103152.25;8282014;28;20318;-86
2022/03/21 19:52:20;;;;;;;;;;;11.60;30.20;;;9.76;31.93;103142.97;8282736;28;20405;-86
2022/03/21 19:56:25;;;;;;;;;;;11.40;30.20;;;9.89;31.82;103186.28;8320036;28;19928;-86
2022/03/21 20:00:28;;;;;;;;;;;11.60;30.30;;;9.40;32.32;103123.41;8288419;28;19927;-86
2022/03/21 20:04:32;;;;;;;;;;;11.20;30.20;;;9.22;32.00;103107.09;8291096;28;20385;-85
2022/03/21 20:08:34;;;;;;;;;;;10.90;30.20;;;9.56;31.64;103189.28;8299869;28;19925;-87
2022/03/21 20:12:37;;;;;;;;;;;11.00;30.20;;;9.47;31.96;103187.66;8295207;28;19921;-87
2022/03/21 20:16:38;;;;;;;;;;;10.90;30.20;;;9.20;31.89;103160.97;8283184;28;19929;-87
2022/03/21 20:20:43;;;;;;;;;;;10.80;30.30;;;8.85;32.14;103135.25;8305622;28;19925;-86
2022/03/21 20:24:44;;;;;;;;;;;10.70;30.30;;;8.59;32.18;103099.03;8303454;28;19924;-87
2022/03/21 20:28:47;;;;;;;;;;;10.60;30.30;;;8.91;32.15;103176.91;8311598;28;20011;-87
2022/03/21 20:32:53;;;;;;;;;;;10.70;30.40;;;8.72;32.31;103165.78;8293263;28;20369;-86
2022/03/21 20:37:07;;;;;;;;;;;10.40;30.40;;;8.34;31.99;103135.63;8298804;28;19921;-86
2022/03/21 20:41:18;;;;;;;;;;;10.20;30.30;;;8.33;32.17;103164.28;8302456;28;19984;-85
2022/03/21 20:45:22;;;;;;;;;;;10.10;30.40;;;7.51;32.30;103052.88;8291511;28;20013;-88
2022/03/21 20:49:38;;;;;;;;;;;10.10;30.40;;;7.88;32.08;103132.44;8282443;28;20016;-86
2022/03/21 20:53:43;;;;;;;;;;;10.10;30.50;;;8.00;32.38;103165.38;8306216;28;20012;-87
2022/03/21 20:57:49;;;;;;;;;;;9.70;30.40;;;7.71;32.50;103141.19;8288626;28;20020;-87
2022/03/21 21:01:51;;;;;;;;;;;9.60;30.40;;;7.90;32.31;103200.94;8285129;28;20012;-87
2022/03/21 21:06:03;;;;;;;;;;;9.50;30.50;;;7.25;32.94;103102.38;8288047;28;20357;-88